createdAt,value
2023-04-12T00:02:56.779Z,0.90
2023-04-12T00:06:03.666Z,0.70
2023-04-12T00:09:06.953Z,0.90
2023-04-12T00:12:09.545Z,0.90
2023-04-12T00:15:11.871Z,1.00
2023-04-12T00:18:14.547Z,1.00
2023-04-12T00:21:20.376Z,1.10
2023-04-12T00:24:23.347Z,0.90
2023-04-12T00:27:26.132Z,1.00
2023-04-12T00:30:29.016Z,0.90
2023-04-12T00:33:31.088Z,1.15
2023-04-12T00:36:35.743Z,1.20
2023-04-12T00:39:38.652Z,0.98
2023-04-12T00:42:44.128Z,0.98
2023-04-12T00:45:49.726Z,1.17
2023-04-12T00:48:52.624Z,0.98
2023-04-12T00:51:55.510Z,1.10
2023-04-12T00:54:58.545Z,0.93
2023-04-12T00:58:00.771Z,0.88
2023-04-12T01:01:03.678Z,1.02
2023-04-12T01:04:06.539Z,1.02
2023-04-12T01:07:45.846Z,0.90
2023-04-12T01:11:06.523Z,1.30
2023-04-12T01:14:22.969Z,0.77
2023-04-12T01:17:31.130Z,1.10
2023-04-12T01:20:45.495Z,1.10
2023-04-12T01:24:26.852Z,0.93
2023-04-12T01:27:51.029Z,0.70
2023-04-12T01:30:55.410Z,0.80
2023-04-12T01:34:00.807Z,0.82
2023-04-12T01:37:04.141Z,0.77
2023-04-12T01:40:09.736Z,1.05
2023-04-12T01:43:13.890Z,0.60
2023-04-12T01:49:24.719Z,0.80
2023-04-12T01:52:33.588Z,0.82
2023-04-12T01:55:39.541Z,1.00
2023-04-12T01:58:44.330Z,0.80
2023-04-12T02:04:52.608Z,0.70
2023-04-12T02:07:56.657Z,0.57
2023-04-12T02:10:59.298Z,0.80
2023-04-12T02:14:01.656Z,0.60
2023-04-12T02:17:04.631Z,0.60
2023-04-12T02:20:10.218Z,0.68
2023-04-12T02:23:13.355Z,0.60
2023-04-12T02:26:15.700Z,0.50
2023-04-12T02:29:19.216Z,0.77
2023-04-12T02:32:24.023Z,0.70
2023-04-12T02:35:27.498Z,0.93
2023-04-12T02:38:36.374Z,0.80
2023-04-12T02:41:41.801Z,0.98
2023-04-12T02:44:48.288Z,0.60
2023-04-12T02:47:51.594Z,0.57
2023-04-12T02:50:58.692Z,0.68
2023-04-12T02:54:03.701Z,0.80
2023-04-12T02:57:18.097Z,0.90
2023-04-12T03:00:23.089Z,0.63
2023-04-12T03:03:28.797Z,0.75
2023-04-12T03:06:35.511Z,0.63
2023-04-12T03:09:38.856Z,0.50
2023-04-12T03:12:42.064Z,0.60
2023-04-12T03:15:57.594Z,0.70
2023-04-12T03:19:07.418Z,0.70
2023-04-12T03:22:09.916Z,0.73
2023-04-12T03:25:18.197Z,0.68
2023-04-12T03:28:26.634Z,0.45
2023-04-12T03:31:29.626Z,0.70
2023-04-12T03:34:36.773Z,0.55
2023-04-12T03:37:47.910Z,0.60
2023-04-12T03:40:51.176Z,1.02
2023-04-12T03:43:59.819Z,0.70
2023-04-12T03:47:02.820Z,0.68
2023-04-12T03:50:12.253Z,0.55
2023-04-12T03:53:19.896Z,0.70
2023-04-12T03:56:24.648Z,0.80
2023-04-12T03:59:30.915Z,0.50
2023-04-12T04:02:34.867Z,0.75
2023-04-12T04:05:38.897Z,0.73
2023-04-12T04:08:43.122Z,0.63
2023-04-12T04:11:47.526Z,0.57
2023-04-12T04:14:49.855Z,0.63
2023-04-12T04:18:03.719Z,0.52
2023-04-12T04:21:07.724Z,0.77
2023-04-12T04:24:11.666Z,0.68
2023-04-12T04:27:20.922Z,0.47
2023-04-12T04:30:24.615Z,0.63
2023-04-12T04:33:28.295Z,0.50
2023-04-12T04:39:41.683Z,0.65
2023-04-12T04:42:46.721Z,0.80
2023-04-12T04:45:54.967Z,0.63
2023-04-12T04:48:59.261Z,0.57
2023-04-12T04:52:02.788Z,0.50
2023-04-12T04:55:07.372Z,0.40
2023-04-12T04:58:12.792Z,0.50
2023-04-12T05:01:17.071Z,0.68
2023-04-12T05:04:22.250Z,0.43
2023-04-12T05:07:26.218Z,0.88
2023-04-12T05:10:29.310Z,0.75
2023-04-12T05:13:34.853Z,0.73
2023-04-12T05:16:37.476Z,0.98
2023-04-12T05:19:41.605Z,0.60
2023-04-12T05:25:48.902Z,0.80
2023-04-12T05:28:53.497Z,0.50
2023-04-12T05:31:57.539Z,0.80
2023-04-12T05:35:04.362Z,0.90
2023-04-12T05:38:06.700Z,0.70
2023-04-12T05:41:09.677Z,0.52
2023-04-12T05:44:12.309Z,0.43
2023-04-12T05:47:16.112Z,0.40
2023-04-12T05:50:18.476Z,0.52
2023-04-12T05:53:22.603Z,0.57
2023-04-12T05:56:25.680Z,0.68
2023-04-12T05:59:28.905Z,0.50
2023-04-12T06:02:31.430Z,0.40
2023-04-12T06:05:34.352Z,0.40
2023-04-12T06:08:38.298Z,0.45
2023-04-12T06:11:42.625Z,0.63
2023-04-12T06:14:44.605Z,0.45
2023-04-12T06:17:48.279Z,0.57
2023-04-12T06:20:50.678Z,0.57
2023-04-12T06:23:53.260Z,0.50
2023-04-12T06:26:56.379Z,0.40
2023-04-12T06:29:59.059Z,0.80
2023-04-12T06:33:01.306Z,0.40
2023-04-12T06:36:04.949Z,0.65
2023-04-12T06:39:08.112Z,0.65
2023-04-12T06:42:13.247Z,0.88
2023-04-12T06:45:16.720Z,0.60
2023-04-12T06:48:19.973Z,0.55
2023-04-12T06:51:22.808Z,0.55
2023-04-12T06:54:25.313Z,1.05
2023-04-12T06:57:27.571Z,0.70
2023-04-12T07:00:30.298Z,0.73
2023-04-12T07:03:36.066Z,0.90
2023-04-12T07:06:38.640Z,0.90
2023-04-12T07:09:40.820Z,1.15
2023-04-12T07:12:43.335Z,0.90
2023-04-12T07:15:45.764Z,0.88
2023-04-12T07:18:49.100Z,0.93
2023-04-12T07:21:51.316Z,0.80
2023-04-12T07:24:54.152Z,0.88
2023-04-12T07:27:56.305Z,0.80
2023-04-12T07:30:59.232Z,1.00
2023-04-12T07:34:02.691Z,0.93
2023-04-12T07:37:09.243Z,0.93
2023-04-12T07:40:12.116Z,1.52
2023-04-12T07:43:17.433Z,1.15
2023-04-12T07:46:19.491Z,1.63
2023-04-12T07:49:24.593Z,1.10
2023-04-12T07:52:27.114Z,1.80
2023-04-12T07:55:29.796Z,1.42
2023-04-12T07:58:33.305Z,1.20
2023-04-12T08:01:36.761Z,1.50
2023-04-12T08:04:38.962Z,1.38
2023-04-12T08:07:49.945Z,1.92
2023-04-12T08:10:52.782Z,1.85
2023-04-12T08:17:12.449Z,1.85
2023-04-12T08:20:18.924Z,1.42
2023-04-12T08:23:21.536Z,1.90
2023-04-12T08:26:24.149Z,1.48
2023-04-12T08:29:26.395Z,1.98
2023-04-12T08:32:28.917Z,1.92
2023-04-12T08:35:31.258Z,1.70
2023-04-12T08:38:44.750Z,2.00
2023-04-12T08:41:48.866Z,1.35
2023-04-12T08:44:52.464Z,1.77
2023-04-12T08:47:55.196Z,1.60
2023-04-12T08:51:01.015Z,1.88
2023-04-12T08:54:03.115Z,1.90
2023-04-12T08:57:07.457Z,2.40
2023-04-12T09:00:11.140Z,1.92
2023-04-12T09:03:14.159Z,1.33
2023-04-12T09:06:16.498Z,1.33
2023-04-12T09:09:19.606Z,1.95
2023-04-12T09:12:24.384Z,1.83
2023-04-12T09:15:26.969Z,1.98
2023-04-12T09:18:29.759Z,1.58
2023-04-12T09:21:34.947Z,1.67
2023-04-12T09:24:50.739Z,1.70
2023-04-12T09:27:58.547Z,1.90
2023-04-12T09:31:01.119Z,1.83
2023-04-12T09:34:19.333Z,1.40
2023-04-12T09:37:21.326Z,1.75
2023-04-12T09:40:25.672Z,1.60
2023-04-12T09:43:38.822Z,1.50
2023-04-12T09:46:55.008Z,1.40
2023-04-12T09:49:57.503Z,2.10
2023-04-12T09:53:02.666Z,1.88
2023-04-12T09:56:06.238Z,1.60
2023-04-12T09:59:09.719Z,1.98
2023-04-12T10:02:17.252Z,1.42
2023-04-12T10:05:22.340Z,1.73
2023-04-12T10:08:26.386Z,2.60
2023-04-12T10:11:29.747Z,1.92
2023-04-12T10:14:32.571Z,1.40
2023-04-12T10:17:35.951Z,1.58
2023-04-12T10:20:42.022Z,1.65
2023-04-12T10:23:47.497Z,1.90
2023-04-12T10:26:54.294Z,1.42
2023-04-12T10:30:24.297Z,1.40
2023-04-12T10:33:31.822Z,1.50
2023-04-12T10:36:54.971Z,1.48
2023-04-12T10:39:58.364Z,1.30
2023-04-12T10:43:19.728Z,1.48
2023-04-12T10:46:40.816Z,2.35
2023-04-12T10:50:25.074Z,1.23
2023-04-12T10:53:29.007Z,1.60
2023-04-12T10:56:34.744Z,1.40
2023-04-12T10:59:54.500Z,1.30
2023-04-12T11:03:10.142Z,1.45
2023-04-12T11:06:26.476Z,1.33
2023-04-12T11:09:51.193Z,1.40
2023-04-12T11:13:09.092Z,1.05
2023-04-12T11:16:23.367Z,1.50
2023-04-12T11:19:25.895Z,1.37
2023-04-12T11:22:32.130Z,1.30
2023-04-12T11:25:36.474Z,1.40
2023-04-12T11:28:41.635Z,1.50
2023-04-12T11:31:43.893Z,1.98
2023-04-12T11:34:47.960Z,1.10
2023-04-12T11:37:58.986Z,1.77
2023-04-12T11:41:02.840Z,1.10
2023-04-12T11:44:06.509Z,1.55
2023-04-12T11:47:19.540Z,1.50
2023-04-12T11:50:30.062Z,1.38
2023-04-12T11:53:33.694Z,1.30
2023-04-12T11:56:38.680Z,1.25
2023-04-12T11:59:44.003Z,1.50
2023-04-12T12:02:56.241Z,1.23
2023-04-12T12:06:10.929Z,1.33
2023-04-12T12:12:17.097Z,1.52
2023-04-12T12:15:19.376Z,1.40
2023-04-12T12:18:27.599Z,1.00
2023-04-12T12:21:31.674Z,1.35
2023-04-12T12:24:37.195Z,1.33
2023-04-12T12:27:44.518Z,1.50
2023-04-12T12:30:47.137Z,1.45
2023-04-12T12:33:50.073Z,1.40
2023-04-12T12:36:57.006Z,1.75
2023-04-12T12:40:11.416Z,1.20
2023-04-12T12:46:21.663Z,1.17
2023-04-12T12:49:24.311Z,1.30
2023-04-12T12:52:32.679Z,1.10
2023-04-12T12:55:35.193Z,1.23
2023-04-12T12:58:39.684Z,1.20
2023-04-12T13:01:43.424Z,1.00
2023-04-12T13:04:45.665Z,1.25
2023-04-12T13:07:48.485Z,1.33
2023-04-12T13:10:51.141Z,1.30
2023-04-12T13:13:53.667Z,1.30
2023-04-12T13:16:57.064Z,1.10
2023-04-12T13:20:00.017Z,1.40
2023-04-12T13:23:02.473Z,1.02
2023-04-12T13:26:05.484Z,1.33
2023-04-12T13:29:07.669Z,1.10
2023-04-12T13:32:10.555Z,0.82
2023-04-12T13:35:13.567Z,1.38
2023-04-12T13:38:16.347Z,1.10
2023-04-12T13:41:19.296Z,1.48
2023-04-12T13:44:21.906Z,1.17
2023-04-12T13:47:24.714Z,1.02
2023-04-12T13:50:27.972Z,1.42
2023-04-12T13:53:31.394Z,1.10
2023-04-12T13:56:34.074Z,1.00
2023-04-12T13:59:36.451Z,0.70
2023-04-12T14:02:40.133Z,1.08
2023-04-12T14:05:42.499Z,0.77
2023-04-12T14:08:46.514Z,1.00
2023-04-12T14:11:50.349Z,0.98
2023-04-12T14:14:53.157Z,0.90
2023-04-12T14:17:55.723Z,0.90
2023-04-12T14:21:00.177Z,1.00
2023-04-12T14:24:02.443Z,1.00
2023-04-12T14:27:05.108Z,0.93
2023-04-12T14:30:08.378Z,1.13
2023-04-12T14:33:10.886Z,0.90
2023-04-12T14:36:13.012Z,0.65
2023-04-12T14:39:16.249Z,0.50
2023-04-12T14:42:18.676Z,1.05
2023-04-12T14:45:21.170Z,0.68
2023-04-12T14:48:23.684Z,0.70
2023-04-12T14:51:27.683Z,0.63
2023-04-12T14:54:30.866Z,0.60
2023-04-12T14:57:35.045Z,0.60
2023-04-12T15:00:38.010Z,0.50
2023-04-12T15:03:42.396Z,0.60
2023-04-12T15:06:45.209Z,0.55
2023-04-12T15:09:48.233Z,0.40
2023-04-12T15:12:51.132Z,0.50
2023-04-12T15:15:53.970Z,0.60
2023-04-12T15:18:57.338Z,0.50
2023-04-12T15:22:01.484Z,0.52
2023-04-12T15:25:04.442Z,0.63
2023-04-12T15:28:07.010Z,0.60
2023-04-12T15:31:10.212Z,0.47
2023-04-12T15:34:13.913Z,0.60
2023-04-12T15:37:16.193Z,0.50
2023-04-12T15:40:21.668Z,0.47
2023-04-12T15:43:25.458Z,0.50
2023-04-12T15:46:28.412Z,0.38
2023-04-12T15:49:30.492Z,0.30
2023-04-12T15:52:33.657Z,0.85
2023-04-12T15:55:36.210Z,0.73
2023-04-12T15:58:38.712Z,0.60
2023-04-12T16:01:40.940Z,0.52
2023-04-12T16:04:44.144Z,0.50
2023-04-12T16:07:51.104Z,0.60
2023-04-12T16:10:53.642Z,0.47
2023-04-12T16:13:56.540Z,0.82
2023-04-12T16:17:00.309Z,0.45
2023-04-12T16:20:02.536Z,0.70
2023-04-12T16:23:05.371Z,0.77
2023-04-12T16:26:07.645Z,0.65
2023-04-12T16:29:11.152Z,0.80
2023-04-12T16:32:14.902Z,0.90
2023-04-12T16:35:18.340Z,0.90
2023-04-12T16:38:20.382Z,0.93
2023-04-12T16:41:23.336Z,0.98
2023-04-12T16:44:25.587Z,1.23
2023-04-12T16:47:40.987Z,0.95
2023-04-12T16:50:46.320Z,1.17
2023-04-12T16:53:49.013Z,1.30
2023-04-12T16:56:51.748Z,1.42
2023-04-12T16:59:55.723Z,1.10
2023-04-12T17:02:58.265Z,2.27
2023-04-12T17:06:00.818Z,3.08
2023-04-12T17:09:03.370Z,3.28
2023-04-12T17:12:07.120Z,2.63
2023-04-12T17:15:09.572Z,2.63
2023-04-12T17:18:12.274Z,2.30
2023-04-12T17:21:17.277Z,2.25
2023-04-12T17:24:19.974Z,2.47
2023-04-12T17:27:23.605Z,2.17
2023-04-12T17:30:27.095Z,2.15
2023-04-12T17:33:29.361Z,2.85
2023-04-12T17:36:32.529Z,3.10
2023-04-12T17:39:35.475Z,2.42
2023-04-12T17:42:40.617Z,3.03
2023-04-12T17:45:42.728Z,2.85
2023-04-12T17:48:49.390Z,2.58
2023-04-12T17:51:51.490Z,3.25
2023-04-12T17:54:54.209Z,2.83
2023-04-12T17:57:57.259Z,2.78
2023-04-12T18:00:59.844Z,3.42
2023-04-12T18:04:03.181Z,2.97
2023-04-12T18:07:09.805Z,3.45
2023-04-12T18:10:16.886Z,3.92
2023-04-12T18:13:20.913Z,3.45
2023-04-12T18:16:23.247Z,3.50
2023-04-12T18:19:26.184Z,3.58
2023-04-12T18:22:28.334Z,3.33
2023-04-12T18:25:31.977Z,3.72
2023-04-12T18:28:34.769Z,3.00
2023-04-12T18:31:40.024Z,2.85
2023-04-12T18:34:42.982Z,3.20
2023-04-12T18:37:46.008Z,2.83
2023-04-12T18:40:48.253Z,3.58
2023-04-12T18:43:53.061Z,2.95
2023-04-12T18:46:55.033Z,3.00
2023-04-12T18:49:58.072Z,2.90
2023-04-12T18:53:00.332Z,3.10
2023-04-12T18:56:12.432Z,3.30
2023-04-12T18:59:17.853Z,3.70
2023-04-12T19:02:20.897Z,2.78
2023-04-12T19:05:24.564Z,2.90
2023-04-12T19:08:28.300Z,3.13
2023-04-12T19:11:31.250Z,3.08
2023-04-12T19:14:33.892Z,3.30
2023-04-12T19:17:40.061Z,3.30
2023-04-12T19:20:43.000Z,3.15
2023-04-12T19:23:45.190Z,2.90
2023-04-12T19:26:48.074Z,3.45
2023-04-12T19:29:56.017Z,3.08
2023-04-12T19:32:59.384Z,2.83
2023-04-12T19:36:01.705Z,3.35
2023-04-12T19:39:04.361Z,3.65
2023-04-12T19:42:07.158Z,2.92
2023-04-12T19:45:10.307Z,2.70
2023-04-12T19:48:13.256Z,2.80
2023-04-12T19:51:17.616Z,2.50
2023-04-12T19:54:23.801Z,2.60
2023-04-12T19:57:28.153Z,3.00
2023-04-12T20:00:30.502Z,2.75
2023-04-12T20:03:34.675Z,2.75
2023-04-12T20:06:37.171Z,2.67
2023-04-12T20:09:40.305Z,2.45
2023-04-12T20:12:42.536Z,2.40
2023-04-12T20:15:45.115Z,2.45
2023-04-12T20:18:47.792Z,1.98
2023-04-12T20:21:50.872Z,2.08
2023-04-12T20:24:57.448Z,1.90
2023-04-12T20:28:01.772Z,1.75
2023-04-12T20:31:04.657Z,2.08
2023-04-12T20:34:07.191Z,1.73
2023-04-12T20:37:09.558Z,1.90
2023-04-12T20:40:13.264Z,1.70
2023-04-12T20:43:15.815Z,1.48
2023-04-12T20:46:26.057Z,1.70
2023-04-12T20:49:30.512Z,1.83
2023-04-12T20:52:33.207Z,1.48
2023-04-12T20:55:35.364Z,1.60
2023-04-12T20:58:38.147Z,1.23
2023-04-12T21:01:40.394Z,0.98
2023-04-12T21:04:43.601Z,1.88
2023-04-12T21:07:47.214Z,1.27
2023-04-12T21:10:49.765Z,1.42
2023-04-12T21:13:53.088Z,1.35
2023-04-12T21:16:55.628Z,1.23
2023-04-12T21:19:58.394Z,1.20
2023-04-12T21:23:01.706Z,1.10
2023-04-12T21:26:04.157Z,1.38
2023-04-12T21:29:06.490Z,1.02
2023-04-12T21:32:09.636Z,1.65
2023-04-12T21:35:12.324Z,1.10
2023-04-12T21:38:14.541Z,1.40
2023-04-12T21:41:17.583Z,1.10
2023-04-12T21:44:20.521Z,1.05
2023-04-12T21:47:24.217Z,1.20
2023-04-12T21:50:26.550Z,1.20
2023-04-12T21:53:29.431Z,1.00
2023-04-12T21:56:31.450Z,1.20
2023-04-12T21:59:34.226Z,1.17
2023-04-12T22:02:36.950Z,1.10
2023-04-12T22:05:46.240Z,1.77
2023-04-12T22:08:54.027Z,1.02
2023-04-12T22:11:57.348Z,0.80
2023-04-12T22:15:00.010Z,1.08
2023-04-12T22:18:02.675Z,0.80
2023-04-12T22:21:07.940Z,0.82
2023-04-12T22:24:11.100Z,0.88
2023-04-12T22:27:13.059Z,0.98
2023-04-12T22:30:16.017Z,0.90
2023-04-12T22:33:18.069Z,0.93
2023-04-12T22:36:21.114Z,0.85
2023-04-12T22:39:23.125Z,0.88
2023-04-12T22:42:29.997Z,0.85
2023-04-12T22:45:32.128Z,0.75
2023-04-12T22:48:34.515Z,0.80
2023-04-12T22:51:36.842Z,0.65
2023-04-12T22:54:41.059Z,0.63
2023-04-12T22:57:43.852Z,0.60
2023-04-12T23:00:49.337Z,0.70
2023-04-12T23:03:52.058Z,0.70
2023-04-12T23:06:57.655Z,0.80
2023-04-12T23:10:02.248Z,0.70
2023-04-12T23:13:05.649Z,0.60
2023-04-12T23:16:08.206Z,0.60
2023-04-12T23:19:12.174Z,0.60
2023-04-12T23:22:41.041Z,0.80
2023-04-12T23:25:55.597Z,0.63
2023-04-12T23:28:58.633Z,0.70
2023-04-12T23:32:01.920Z,0.50
2023-04-12T23:35:04.278Z,0.60
2023-04-12T23:38:07.990Z,0.60
2023-04-12T23:41:12.035Z,0.52
2023-04-12T23:47:17.764Z,0.55
2023-04-12T23:50:21.443Z,0.70
2023-04-12T23:53:23.616Z,0.50
2023-04-12T23:56:26.491Z,0.47
2023-04-12T23:59:29.513Z,0.60
